sensor_id;sensor_type;location;lat;lon;timestamp;P1;durP1;ratioP1;P2;durP2;ratioP2
58647;SDS011;45992;45.920;20.074;2022-12-07T07:18:22;148.68;;;77.90;;
58647;SDS011;45992;45.920;20.074;2022-12-07T07:20:48;226.77;;;107.25;;
58647;SDS011;45992;45.920;20.074;2022-12-07T07:23:15;183.02;;;89.55;;
58647;SDS011;45992;45.920;20.074;2022-12-07T07:25:41;180.93;;;92.03;;
58647;SDS011;45992;45.920;20.074;2022-12-07T07:28:08;171.80;;;81.57;;
58647;SDS011;45992;45.920;20.074;2022-12-07T07:30:34;139.93;;;75.40;;
58647;SDS011;45992;45.920;20.074;2022-12-07T07:33:00;133.10;;;71.43;;
58647;SDS011;45992;45.920;20.074;2022-12-07T07:37:52;112.35;;;57.50;;
58647;SDS011;45992;45.920;20.074;2022-12-07T07:40:18;141.80;;;94.37;;
58647;SDS011;45992;45.920;20.074;2022-12-07T07:42:46;178.23;;;120.73;;
58647;SDS011;45992;45.920;20.074;2022-12-07T07:45:13;165.50;;;101.32;;
58647;SDS011;45992;45.920;20.074;2022-12-07T07:47:39;308.63;;;180.40;;
58647;SDS011;45992;45.920;20.074;2022-12-07T07:50:05;150.20;;;92.25;;
58647;SDS011;45992;45.920;20.074;2022-12-07T07:52:31;162.13;;;95.40;;
58647;SDS011;45992;45.920;20.074;2022-12-07T07:54:57;115.77;;;66.73;;
58647;SDS011;45992;45.920;20.074;2022-12-07T07:57:23;112.57;;;63.77;;
58647;SDS011;45992;45.920;20.074;2022-12-07T07:59:50;144.40;;;85.17;;
58647;SDS011;45992;45.920;20.074;2022-12-07T08:02:16;135.68;;;80.32;;
58647;SDS011;45992;45.920;20.074;2022-12-07T08:04:43;129.38;;;83.00;;
58647;SDS011;45992;45.920;20.074;2022-12-07T08:07:10;140.20;;;84.55;;
58647;SDS011;45992;45.920;20.074;2022-12-07T08:09:36;148.15;;;89.78;;
58647;SDS011;45992;45.920;20.074;2022-12-07T08:12:02;181.07;;;107.73;;
58647;SDS011;45992;45.920;20.074;2022-12-07T08:14:28;180.88;;;111.72;;
58647;SDS011;45992;45.920;20.074;2022-12-07T08:16:54;174.43;;;114.33;;
58647;SDS011;45992;45.920;20.074;2022-12-07T08:19:20;177.27;;;113.93;;
58647;SDS011;45992;45.920;20.074;2022-12-07T08:21:46;160.93;;;98.13;;
58647;SDS011;45992;45.920;20.074;2022-12-07T08:24:13;116.27;;;73.87;;
58647;SDS011;45992;45.920;20.074;2022-12-07T08:26:39;104.88;;;68.60;;
58647;SDS011;45992;45.920;20.074;2022-12-07T08:29:05;168.57;;;121.47;;
58647;SDS011;45992;45.920;20.074;2022-12-07T08:31:31;131.65;;;91.07;;
58647;SDS011;45992;45.920;20.074;2022-12-07T08:33:58;136.63;;;81.37;;
58647;SDS011;45992;45.920;20.074;2022-12-07T08:36:24;215.85;;;130.70;;
58647;SDS011;45992;45.920;20.074;2022-12-07T08:38:50;157.80;;;99.70;;
58647;SDS011;45992;45.920;20.074;2022-12-07T08:41:16;166.38;;;101.97;;
58647;SDS011;45992;45.920;20.074;2022-12-07T08:43:42;178.07;;;107.65;;
58647;SDS011;45992;45.920;20.074;2022-12-07T08:46:10;266.38;;;155.73;;
58647;SDS011;45992;45.920;20.074;2022-12-07T08:48:43;251.07;;;146.07;;
58647;SDS011;45992;45.920;20.074;2022-12-07T08:51:11;344.33;;;187.55;;
58647;SDS011;45992;45.920;20.074;2022-12-07T08:53:37;422.58;;;221.93;;
58647;SDS011;45992;45.920;20.074;2022-12-07T08:58:30;357.35;;;186.88;;
58647;SDS011;45992;45.920;20.074;2022-12-07T09:00:56;250.33;;;141.53;;
58647;SDS011;45992;45.920;20.074;2022-12-07T09:03:22;110.30;;;70.45;;
58647;SDS011;45992;45.920;20.074;2022-12-07T09:05:48;91.13;;;57.77;;
58647;SDS011;45992;45.920;20.074;2022-12-07T09:08:14;75.13;;;51.37;;
58647;SDS011;45992;45.920;20.074;2022-12-07T09:10:40;98.43;;;63.40;;
58647;SDS011;45992;45.920;20.074;2022-12-07T09:13:06;186.53;;;92.07;;
58647;SDS011;45992;45.920;20.074;2022-12-07T09:15:32;197.23;;;85.50;;
58647;SDS011;45992;45.920;20.074;2022-12-07T09:17:58;150.63;;;71.13;;
58647;SDS011;45992;45.920;20.074;2022-12-07T09:20:24;114.55;;;61.42;;
58647;SDS011;45992;45.920;20.074;2022-12-07T09:22:50;113.22;;;56.00;;
58647;SDS011;45992;45.920;20.074;2022-12-07T09:25:16;82.87;;;48.97;;
58647;SDS011;45992;45.920;20.074;2022-12-07T09:27:42;78.87;;;45.83;;
58647;SDS011;45992;45.920;20.074;2022-12-07T09:30:08;80.03;;;48.77;;
58647;SDS011;45992;45.920;20.074;2022-12-07T09:32:35;164.33;;;81.27;;
58647;SDS011;45992;45.920;20.074;2022-12-07T09:35:01;149.75;;;80.15;;
58647;SDS011;45992;45.920;20.074;2022-12-07T09:37:27;97.85;;;55.25;;
58647;SDS011;45992;45.920;20.074;2022-12-07T09:39:54;61.23;;;42.60;;
58647;SDS011;45992;45.920;20.074;2022-12-07T09:44:58;63.70;;;42.05;;
58647;SDS011;45992;45.920;20.074;2022-12-07T09:47:24;81.45;;;50.60;;
58647;SDS011;45992;45.920;20.074;2022-12-07T09:49:51;70.72;;;42.67;;
58647;SDS011;45992;45.920;20.074;2022-12-07T09:52:27;80.23;;;52.63;;
58647;SDS011;45992;45.920;20.074;2022-12-07T09:54:54;71.65;;;44.58;;
58647;SDS011;45992;45.920;20.074;2022-12-07T09:57:21;52.67;;;38.20;;
58647;SDS011;45992;45.920;20.074;2022-12-07T09:59:51;52.33;;;34.72;;
58647;SDS011;45992;45.920;20.074;2022-12-07T10:02:22;47.47;;;33.33;;
58647;SDS011;45992;45.920;20.074;2022-12-07T10:04:49;55.30;;;40.00;;
58647;SDS011;45992;45.920;20.074;2022-12-07T10:07:15;51.17;;;33.97;;
58647;SDS011;45992;45.920;20.074;2022-12-07T10:09:41;39.90;;;29.30;;
58647;SDS011;45992;45.920;20.074;2022-12-07T10:12:09;53.50;;;37.85;;
58647;SDS011;45992;45.920;20.074;2022-12-07T10:15:21;47.03;;;32.75;;
58647;SDS011;45992;45.920;20.074;2022-12-07T10:19:51;51.60;;;37.03;;
58647;SDS011;45992;45.920;20.074;2022-12-07T10:22:17;47.17;;;29.80;;
58647;SDS011;45992;45.920;20.074;2022-12-07T10:24:44;21.93;;;13.30;;
58647;SDS011;45992;45.920;20.074;2022-12-07T10:27:21;62.95;;;36.33;;
58647;SDS011;45992;45.920;20.074;2022-12-07T10:29:51;50.85;;;28.02;;
58647;SDS011;45992;45.920;20.074;2022-12-07T10:34:44;49.07;;;26.87;;
58647;SDS011;45992;45.920;20.074;2022-12-07T10:37:14;32.13;;;20.73;;
58647;SDS011;45992;45.920;20.074;2022-12-07T10:39:41;31.95;;;19.90;;
58647;SDS011;45992;45.920;20.074;2022-12-07T10:42:15;27.02;;;17.65;;
58647;SDS011;45992;45.920;20.074;2022-12-07T10:44:41;25.52;;;18.67;;
58647;SDS011;45992;45.920;20.074;2022-12-07T10:50:14;27.33;;;20.20;;
58647;SDS011;45992;45.920;20.074;2022-12-07T10:55:14;60.40;;;44.53;;
58647;SDS011;45992;45.920;20.074;2022-12-07T10:57:45;53.78;;;36.88;;
58647;SDS011;45992;45.920;20.074;2022-12-07T11:05:21;50.47;;;34.50;;
58647;SDS011;45992;45.920;20.074;2022-12-07T11:10:41;64.15;;;42.28;;
58647;SDS011;45992;45.920;20.074;2022-12-07T11:13:16;48.22;;;30.73;;
58647;SDS011;45992;45.920;20.074;2022-12-07T11:21:09;25.13;;;17.98;;
58647;SDS011;45992;45.920;20.074;2022-12-07T11:31:22;37.33;;;27.42;;
58647;SDS011;45992;45.920;20.074;2022-12-07T11:36:49;129.70;;;62.63;;
58647;SDS011;45992;45.920;20.074;2022-12-07T11:42:14;36.40;;;21.35;;
58647;SDS011;45992;45.920;20.074;2022-12-07T11:44:52;50.42;;;27.50;;
58647;SDS011;45992;45.920;20.074;2022-12-07T11:49:52;32.05;;;18.95;;
58647;SDS011;45992;45.920;20.074;2022-12-07T11:52:25;24.33;;;17.42;;
58647;SDS011;45992;45.920;20.074;2022-12-07T11:54:53;27.27;;;20.15;;
58647;SDS011;45992;45.920;20.074;2022-12-07T12:00:18;33.85;;;19.52;;
58647;SDS011;45992;45.920;20.074;2022-12-07T12:02:48;39.47;;;25.33;;
58647;SDS011;45992;45.920;20.074;2022-12-07T12:05:18;34.67;;;23.65;;
58647;SDS011;45992;45.920;20.074;2022-12-07T12:07:46;41.75;;;24.75;;
58647;SDS011;45992;45.920;20.074;2022-12-07T12:15:21;33.72;;;24.90;;
58647;SDS011;45992;45.920;20.074;2022-12-07T12:18:13;28.70;;;19.58;;
58647;SDS011;45992;45.920;20.074;2022-12-07T12:20:46;26.48;;;19.55;;
58647;SDS011;45992;45.920;20.074;2022-12-07T12:23:15;33.75;;;27.02;;
58647;SDS011;45992;45.920;20.074;2022-12-07T12:25:55;29.45;;;21.58;;
58647;SDS011;45992;45.920;20.074;2022-12-07T12:31:04;21.20;;;16.50;;
58647;SDS011;45992;45.920;20.074;2022-12-07T12:33:31;26.20;;;20.60;;
58647;SDS011;45992;45.920;20.074;2022-12-07T12:38:29;35.47;;;27.17;;
58647;SDS011;45992;45.920;20.074;2022-12-07T12:40:55;33.90;;;26.63;;
58647;SDS011;45992;45.920;20.074;2022-12-07T12:48:52;31.60;;;23.35;;
58647;SDS011;45992;45.920;20.074;2022-12-07T12:51:37;27.55;;;20.70;;
58647;SDS011;45992;45.920;20.074;2022-12-07T12:54:04;47.28;;;31.85;;
58647;SDS011;45992;45.920;20.074;2022-12-07T13:20:49;42.58;;;28.60;;
58647;SDS011;45992;45.920;20.074;2022-12-07T13:26:02;60.40;;;38.95;;
58647;SDS011;45992;45.920;20.074;2022-12-07T13:31:35;37.78;;;31.33;;
58647;SDS011;45992;45.920;20.074;2022-12-07T13:34:02;35.30;;;24.65;;
58647;SDS011;45992;45.920;20.074;2022-12-07T13:36:37;52.40;;;32.03;;
58647;SDS011;45992;45.920;20.074;2022-12-07T13:39:11;52.70;;;35.92;;
58647;SDS011;45992;45.920;20.074;2022-12-07T13:41:42;91.63;;;60.47;;
58647;SDS011;45992;45.920;20.074;2022-12-07T13:47:13;77.45;;;50.08;;
58647;SDS011;45992;45.920;20.074;2022-12-07T13:49:46;64.90;;;40.78;;
58647;SDS011;45992;45.920;20.074;2022-12-07T13:52:17;64.80;;;40.92;;
58647;SDS011;45992;45.920;20.074;2022-12-07T13:55:29;86.57;;;60.35;;
58647;SDS011;45992;45.920;20.074;2022-12-07T13:57:30;56.13;;;39.92;;
58647;SDS011;45992;45.920;20.074;2022-12-07T13:59:58;50.55;;;35.78;;
58647;SDS011;45992;45.920;20.074;2022-12-07T14:02:29;44.00;;;33.08;;
58647;SDS011;45992;45.920;20.074;2022-12-07T14:05:14;40.67;;;29.65;;
58647;SDS011;45992;45.920;20.074;2022-12-07T14:12:51;59.13;;;38.47;;
58647;SDS011;45992;45.920;20.074;2022-12-07T14:15:21;47.27;;;34.67;;
58647;SDS011;45992;45.920;20.074;2022-12-07T14:17:51;59.30;;;39.90;;
58647;SDS011;45992;45.920;20.074;2022-12-07T14:20:36;152.07;;;86.05;;
58647;SDS011;45992;45.920;20.074;2022-12-07T14:23:03;413.15;;;171.55;;
58647;SDS011;45992;45.920;20.074;2022-12-07T14:25:48;129.05;;;69.13;;
58647;SDS011;45992;45.920;20.074;2022-12-07T14:33:36;238.87;;;115.90;;
58647;SDS011;45992;45.920;20.074;2022-12-07T14:36:02;98.80;;;55.53;;
58647;SDS011;45992;45.920;20.074;2022-12-07T14:38:28;66.00;;;48.15;;
58647;SDS011;45992;45.920;20.074;2022-12-07T14:40:54;114.63;;;85.50;;
58647;SDS011;45992;45.920;20.074;2022-12-07T14:43:41;115.13;;;88.35;;
58647;SDS011;45992;45.920;20.074;2022-12-07T14:46:07;89.77;;;65.47;;
58647;SDS011;45992;45.920;20.074;2022-12-07T14:48:34;89.30;;;58.53;;
58647;SDS011;45992;45.920;20.074;2022-12-07T14:51:00;101.07;;;68.47;;
58647;SDS011;45992;45.920;20.074;2022-12-07T14:53:30;105.23;;;71.77;;
58647;SDS011;45992;45.920;20.074;2022-12-07T14:55:57;185.63;;;92.60;;
58647;SDS011;45992;45.920;20.074;2022-12-07T14:58:23;126.23;;;74.23;;
58647;SDS011;45992;45.920;20.074;2022-12-07T15:00:49;144.00;;;94.87;;
58647;SDS011;45992;45.920;20.074;2022-12-07T15:03:15;163.37;;;106.27;;
58647;SDS011;45992;45.920;20.074;2022-12-07T15:05:41;206.80;;;130.07;;
58647;SDS011;45992;45.920;20.074;2022-12-07T15:08:11;207.97;;;127.90;;
58647;SDS011;45992;45.920;20.074;2022-12-07T15:10:37;201.50;;;125.20;;
58647;SDS011;45992;45.920;20.074;2022-12-07T15:13:05;154.63;;;100.90;;
58647;SDS011;45992;45.920;20.074;2022-12-07T15:15:50;274.45;;;145.82;;
58647;SDS011;45992;45.920;20.074;2022-12-07T15:18:16;232.32;;;135.02;;
58647;SDS011;45992;45.920;20.074;2022-12-07T15:20:43;208.20;;;117.13;;
58647;SDS011;45992;45.920;20.074;2022-12-07T15:23:09;178.47;;;114.27;;
58647;SDS011;45992;45.920;20.074;2022-12-07T15:25:35;198.50;;;124.70;;
58647;SDS011;45992;45.920;20.074;2022-12-07T15:28:01;202.85;;;124.13;;
58647;SDS011;45992;45.920;20.074;2022-12-07T15:30:27;202.87;;;126.93;;
58647;SDS011;45992;45.920;20.074;2022-12-07T15:32:53;197.33;;;124.27;;
58647;SDS011;45992;45.920;20.074;2022-12-07T15:35:20;195.20;;;121.32;;
58647;SDS011;45992;45.920;20.074;2022-12-07T15:37:46;194.63;;;119.15;;
58647;SDS011;45992;45.920;20.074;2022-12-07T15:40:12;197.75;;;121.75;;
58647;SDS011;45992;45.920;20.074;2022-12-07T15:42:39;291.90;;;162.25;;
58647;SDS011;45992;45.920;20.074;2022-12-07T15:45:06;314.52;;;167.57;;
58647;SDS011;45992;45.920;20.074;2022-12-07T15:47:37;334.83;;;197.02;;
58647;SDS011;45992;45.920;20.074;2022-12-07T15:50:04;360.75;;;214.45;;
58647;SDS011;45992;45.920;20.074;2022-12-07T15:54:56;389.25;;;231.52;;
58647;SDS011;45992;45.920;20.074;2022-12-07T15:57:22;534.13;;;325.60;;
58647;SDS011;45992;45.920;20.074;2022-12-07T15:59:48;518.63;;;310.77;;
58647;SDS011;45992;45.920;20.074;2022-12-07T16:02:14;494.67;;;290.70;;
58647;SDS011;45992;45.920;20.074;2022-12-07T16:04:40;454.87;;;277.13;;
58647;SDS011;45992;45.920;20.074;2022-12-07T16:07:06;461.42;;;269.80;;
58647;SDS011;45992;45.920;20.074;2022-12-07T16:09:32;440.90;;;265.10;;
58647;SDS011;45992;45.920;20.074;2022-12-07T16:11:58;437.37;;;264.23;;
58647;SDS011;45992;45.920;20.074;2022-12-07T16:14:24;472.27;;;289.20;;
58647;SDS011;45992;45.920;20.074;2022-12-07T16:16:50;535.27;;;318.87;;
58647;SDS011;45992;45.920;20.074;2022-12-07T16:19:16;556.08;;;328.17;;
58647;SDS011;45992;45.920;20.074;2022-12-07T16:21:42;528.77;;;304.83;;
58647;SDS011;45992;45.920;20.074;2022-12-07T16:24:08;464.37;;;284.00;;
58647;SDS011;45992;45.920;20.074;2022-12-07T16:26:40;415.70;;;253.40;;
58647;SDS011;45992;45.920;20.074;2022-12-07T16:29:06;395.63;;;247.83;;
58647;SDS011;45992;45.920;20.074;2022-12-07T16:31:32;450.47;;;301.00;;
58647;SDS011;45992;45.920;20.074;2022-12-07T16:33:58;405.75;;;254.38;;
58647;SDS011;45992;45.920;20.074;2022-12-07T16:36:25;401.10;;;236.30;;
58647;SDS011;45992;45.920;20.074;2022-12-07T16:38:52;351.58;;;208.15;;
58647;SDS011;45992;45.920;20.074;2022-12-07T16:41:18;354.02;;;205.05;;
58647;SDS011;45992;45.920;20.074;2022-12-07T16:43:44;381.08;;;236.45;;
58647;SDS011;45992;45.920;20.074;2022-12-07T16:46:10;382.87;;;264.53;;
58647;SDS011;45992;45.920;20.074;2022-12-07T16:48:37;285.77;;;197.63;;
58647;SDS011;45992;45.920;20.074;2022-12-07T16:51:04;305.08;;;180.82;;
58647;SDS011;45992;45.920;20.074;2022-12-07T16:53:30;204.50;;;134.45;;
58647;SDS011;45992;45.920;20.074;2022-12-07T16:55:56;279.27;;;177.10;;
58647;SDS011;45992;45.920;20.074;2022-12-07T16:58:22;330.87;;;211.03;;
58647;SDS011;45992;45.920;20.074;2022-12-07T17:00:48;256.83;;;163.83;;
58647;SDS011;45992;45.920;20.074;2022-12-07T17:03:14;234.30;;;162.00;;
58647;SDS011;45992;45.920;20.074;2022-12-07T17:05:42;236.00;;;161.60;;
58647;SDS011;45992;45.920;20.074;2022-12-07T17:08:08;218.05;;;142.02;;
58647;SDS011;45992;45.920;20.074;2022-12-07T17:10:35;364.77;;;228.75;;
58647;SDS011;45992;45.920;20.074;2022-12-07T17:13:05;417.10;;;286.58;;
58647;SDS011;45992;45.920;20.074;2022-12-07T17:15:56;413.95;;;275.85;;
58647;SDS011;45992;45.920;20.074;2022-12-07T17:18:23;414.50;;;275.90;;
58647;SDS011;45992;45.920;20.074;2022-12-07T17:20:49;376.43;;;245.60;;
58647;SDS011;45992;45.920;20.074;2022-12-07T17:23:15;347.67;;;221.50;;
58647;SDS011;45992;45.920;20.074;2022-12-07T17:25:41;309.00;;;204.00;;
58647;SDS011;45992;45.920;20.074;2022-12-07T17:28:07;287.42;;;180.80;;
58647;SDS011;45992;45.920;20.074;2022-12-07T17:30:33;251.47;;;158.43;;
58647;SDS011;45992;45.920;20.074;2022-12-07T17:32:59;256.60;;;157.90;;
58647;SDS011;45992;45.920;20.074;2022-12-07T17:35:25;309.57;;;195.90;;
58647;SDS011;45992;45.920;20.074;2022-12-07T17:37:51;326.45;;;204.43;;
58647;SDS011;45992;45.920;20.074;2022-12-07T17:40:17;246.73;;;156.80;;
58647;SDS011;45992;45.920;20.074;2022-12-07T17:42:43;195.13;;;124.63;;
58647;SDS011;45992;45.920;20.074;2022-12-07T17:45:12;176.88;;;116.57;;
58647;SDS011;45992;45.920;20.074;2022-12-07T17:47:38;173.45;;;121.78;;
58647;SDS011;45992;45.920;20.074;2022-12-07T17:50:05;211.85;;;136.95;;
58647;SDS011;45992;45.920;20.074;2022-12-07T17:52:32;199.20;;;124.40;;
58647;SDS011;45992;45.920;20.074;2022-12-07T17:55:17;241.75;;;150.80;;
58647;SDS011;45992;45.920;20.074;2022-12-07T17:57:43;274.90;;;170.15;;
58647;SDS011;45992;45.920;20.074;2022-12-07T18:00:09;278.07;;;172.13;;
58647;SDS011;45992;45.920;20.074;2022-12-07T18:02:36;250.20;;;153.32;;
58647;SDS011;45992;45.920;20.074;2022-12-07T18:05:02;262.60;;;164.50;;
58647;SDS011;45992;45.920;20.074;2022-12-07T18:07:28;311.63;;;194.43;;
58647;SDS011;45992;45.920;20.074;2022-12-07T18:09:54;273.83;;;177.70;;
58647;SDS011;45992;45.920;20.074;2022-12-07T18:12:21;276.50;;;179.30;;
58647;SDS011;45992;45.920;20.074;2022-12-07T18:14:47;249.70;;;158.32;;
58647;SDS011;45992;45.920;20.074;2022-12-07T18:17:15;287.35;;;167.05;;
58647;SDS011;45992;45.920;20.074;2022-12-07T18:19:41;373.75;;;196.93;;
58647;SDS011;45992;45.920;20.074;2022-12-07T18:22:07;327.00;;;186.60;;
58647;SDS011;45992;45.920;20.074;2022-12-07T18:24:33;314.57;;;181.17;;
58647;SDS011;45992;45.920;20.074;2022-12-07T18:26:59;352.17;;;211.20;;
58647;SDS011;45992;45.920;20.074;2022-12-07T18:29:25;305.73;;;177.30;;
58647;SDS011;45992;45.920;20.074;2022-12-07T18:31:51;318.50;;;182.27;;
58647;SDS011;45992;45.920;20.074;2022-12-07T18:34:17;319.80;;;202.07;;
58647;SDS011;45992;45.920;20.074;2022-12-07T18:36:44;390.42;;;244.05;;
58647;SDS011;45992;45.920;20.074;2022-12-07T18:39:11;391.58;;;248.77;;
58647;SDS011;45992;45.920;20.074;2022-12-07T18:41:37;356.73;;;225.23;;
58647;SDS011;45992;45.920;20.074;2022-12-07T18:46:30;454.23;;;299.23;;
58647;SDS011;45992;45.920;20.074;2022-12-07T18:48:56;525.13;;;347.23;;
58647;SDS011;45992;45.920;20.074;2022-12-07T18:51:22;585.03;;;365.97;;
58647;SDS011;45992;45.920;20.074;2022-12-07T18:53:48;497.83;;;329.90;;
58647;SDS011;45992;45.920;20.074;2022-12-07T18:56:15;466.02;;;307.85;;
58647;SDS011;45992;45.920;20.074;2022-12-07T18:58:42;478.42;;;329.20;;
58647;SDS011;45992;45.920;20.074;2022-12-07T19:01:27;467.88;;;325.48;;
58647;SDS011;45992;45.920;20.074;2022-12-07T19:03:54;426.42;;;283.52;;
58647;SDS011;45992;45.920;20.074;2022-12-07T19:06:20;354.52;;;228.18;;
58647;SDS011;45992;45.920;20.074;2022-12-07T19:08:47;345.75;;;222.82;;
58647;SDS011;45992;45.920;20.074;2022-12-07T19:11:16;294.20;;;193.93;;
58647;SDS011;45992;45.920;20.074;2022-12-07T19:14:01;248.07;;;160.80;;
58647;SDS011;45992;45.920;20.074;2022-12-07T19:16:27;253.50;;;154.43;;
58647;SDS011;45992;45.920;20.074;2022-12-07T19:18:53;298.98;;;168.80;;
58647;SDS011;45992;45.920;20.074;2022-12-07T19:21:19;263.87;;;149.10;;
58647;SDS011;45992;45.920;20.074;2022-12-07T19:23:45;279.53;;;150.47;;
58647;SDS011;45992;45.920;20.074;2022-12-07T19:26:11;294.10;;;165.43;;
58647;SDS011;45992;45.920;20.074;2022-12-07T19:28:37;263.70;;;150.93;;
58647;SDS011;45992;45.920;20.074;2022-12-07T19:31:06;213.63;;;126.85;;
58647;SDS011;45992;45.920;20.074;2022-12-07T19:33:33;190.98;;;120.20;;
58647;SDS011;45992;45.920;20.074;2022-12-07T19:35:59;194.07;;;121.33;;
58647;SDS011;45992;45.920;20.074;2022-12-07T19:38:25;402.55;;;224.85;;
58647;SDS011;45992;45.920;20.074;2022-12-07T19:40:51;321.63;;;183.13;;
58647;SDS011;45992;45.920;20.074;2022-12-07T19:43:17;265.90;;;160.50;;
58647;SDS011;45992;45.920;20.074;2022-12-07T19:45:43;324.07;;;190.77;;
58647;SDS011;45992;45.920;20.074;2022-12-07T19:48:09;365.33;;;215.13;;
58647;SDS011;45992;45.920;20.074;2022-12-07T19:50:35;400.07;;;241.50;;
58647;SDS011;45992;45.920;20.074;2022-12-07T19:53:01;393.20;;;224.33;;
58647;SDS011;45992;45.920;20.074;2022-12-07T19:55:27;383.47;;;240.00;;
58647;SDS011;45992;45.920;20.074;2022-12-07T19:57:53;484.87;;;312.87;;
58647;SDS011;45992;45.920;20.074;2022-12-07T20:00:19;402.23;;;266.63;;
58647;SDS011;45992;45.920;20.074;2022-12-07T20:02:45;351.52;;;238.55;;
58647;SDS011;45992;45.920;20.074;2022-12-07T20:05:11;306.90;;;202.27;;
58647;SDS011;45992;45.920;20.074;2022-12-07T20:07:37;340.17;;;211.93;;
58647;SDS011;45992;45.920;20.074;2022-12-07T20:10:04;393.25;;;234.77;;
58647;SDS011;45992;45.920;20.074;2022-12-07T20:12:31;349.25;;;212.68;;
58647;SDS011;45992;45.920;20.074;2022-12-07T20:15:15;327.92;;;201.63;;
58647;SDS011;45992;45.920;20.074;2022-12-07T20:17:41;285.63;;;178.27;;
58647;SDS011;45992;45.920;20.074;2022-12-07T20:20:07;299.67;;;178.35;;
58647;SDS011;45992;45.920;20.074;2022-12-07T20:22:33;313.23;;;192.52;;
58647;SDS011;45992;45.920;20.074;2022-12-07T20:24:59;313.80;;;186.60;;
58647;SDS011;45992;45.920;20.074;2022-12-07T20:27:26;325.77;;;200.73;;
58647;SDS011;45992;45.920;20.074;2022-12-07T20:29:52;392.20;;;235.83;;
58647;SDS011;45992;45.920;20.074;2022-12-07T20:32:18;422.23;;;266.60;;
58647;SDS011;45992;45.920;20.074;2022-12-07T20:34:44;395.00;;;244.57;;
58647;SDS011;45992;45.920;20.074;2022-12-07T20:37:10;347.17;;;216.07;;
58647;SDS011;45992;45.920;20.074;2022-12-07T20:39:37;329.77;;;211.52;;
58647;SDS011;45992;45.920;20.074;2022-12-07T20:42:03;356.80;;;229.30;;
58647;SDS011;45992;45.920;20.074;2022-12-07T20:44:47;348.88;;;231.38;;
58647;SDS011;45992;45.920;20.074;2022-12-07T20:47:13;354.67;;;225.55;;
58647;SDS011;45992;45.920;20.074;2022-12-07T20:49:39;360.73;;;225.70;;
58647;SDS011;45992;45.920;20.074;2022-12-07T20:52:05;355.13;;;224.95;;
58647;SDS011;45992;45.920;20.074;2022-12-07T20:54:31;387.03;;;240.87;;
58647;SDS011;45992;45.920;20.074;2022-12-07T20:56:57;351.10;;;216.10;;
58647;SDS011;45992;45.920;20.074;2022-12-07T20:59:24;327.63;;;204.70;;
58647;SDS011;45992;45.920;20.074;2022-12-07T21:01:50;322.52;;;202.82;;
58647;SDS011;45992;45.920;20.074;2022-12-07T21:06:43;273.48;;;169.90;;
58647;SDS011;45992;45.920;20.074;2022-12-07T21:09:09;234.50;;;142.67;;
58647;SDS011;45992;45.920;20.074;2022-12-07T21:11:36;202.80;;;128.55;;
58647;SDS011;45992;45.920;20.074;2022-12-07T21:14:03;186.05;;;116.68;;
58647;SDS011;45992;45.920;20.074;2022-12-07T21:16:29;163.13;;;97.43;;
58647;SDS011;45992;45.920;20.074;2022-12-07T21:18:56;160.65;;;95.03;;
58647;SDS011;45992;45.920;20.074;2022-12-07T21:21:24;138.27;;;90.40;;
58647;SDS011;45992;45.920;20.074;2022-12-07T21:23:51;123.67;;;85.00;;
58647;SDS011;45992;45.920;20.074;2022-12-07T21:26:18;103.43;;;69.63;;
58647;SDS011;45992;45.920;20.074;2022-12-07T21:28:44;118.30;;;79.07;;
58647;SDS011;45992;45.920;20.074;2022-12-07T21:31:10;131.82;;;83.90;;
58647;SDS011;45992;45.920;20.074;2022-12-07T21:33:36;123.38;;;76.88;;
58647;SDS011;45992;45.920;20.074;2022-12-07T21:36:03;119.32;;;74.10;;
58647;SDS011;45992;45.920;20.074;2022-12-07T21:38:30;116.78;;;75.15;;
58647;SDS011;45992;45.920;20.074;2022-12-07T21:40:56;115.57;;;74.33;;
58647;SDS011;45992;45.920;20.074;2022-12-07T21:43:22;103.97;;;70.85;;
58647;SDS011;45992;45.920;20.074;2022-12-07T21:45:49;106.30;;;70.50;;
58647;SDS011;45992;45.920;20.074;2022-12-07T21:50:41;108.35;;;72.38;;
58647;SDS011;45992;45.920;20.074;2022-12-07T21:53:07;99.50;;;68.73;;
58647;SDS011;45992;45.920;20.074;2022-12-07T21:55:33;101.37;;;67.60;;
58647;SDS011;45992;45.920;20.074;2022-12-07T21:57:59;120.20;;;73.87;;
58647;SDS011;45992;45.920;20.074;2022-12-07T22:00:25;121.13;;;76.57;;
58647;SDS011;45992;45.920;20.074;2022-12-07T22:02:52;119.57;;;75.68;;
58647;SDS011;45992;45.920;20.074;2022-12-07T22:05:18;155.63;;;92.13;;
58647;SDS011;45992;45.920;20.074;2022-12-07T22:07:44;148.00;;;89.10;;
58647;SDS011;45992;45.920;20.074;2022-12-07T22:10:10;152.93;;;91.32;;
58647;SDS011;45992;45.920;20.074;2022-12-07T22:12:36;174.00;;;105.50;;
58647;SDS011;45992;45.920;20.074;2022-12-07T22:15:02;146.47;;;97.37;;
58647;SDS011;45992;45.920;20.074;2022-12-07T22:17:31;160.20;;;97.70;;
58647;SDS011;45992;45.920;20.074;2022-12-07T22:19:57;144.00;;;89.80;;
58647;SDS011;45992;45.920;20.074;2022-12-07T22:22:23;159.17;;;94.57;;
58647;SDS011;45992;45.920;20.074;2022-12-07T22:24:50;227.90;;;116.73;;
58647;SDS011;45992;45.920;20.074;2022-12-07T22:27:16;249.70;;;130.10;;
58647;SDS011;45992;45.920;20.074;2022-12-07T22:29:43;287.90;;;145.93;;
58647;SDS011;45992;45.920;20.074;2022-12-07T22:32:09;278.23;;;152.10;;
58647;SDS011;45992;45.920;20.074;2022-12-07T22:34:35;286.38;;;161.32;;
58647;SDS011;45992;45.920;20.074;2022-12-07T22:37:01;298.63;;;167.40;;
58647;SDS011;45992;45.920;20.074;2022-12-07T22:39:27;390.53;;;214.23;;
58647;SDS011;45992;45.920;20.074;2022-12-07T22:41:53;428.43;;;234.70;;
58647;SDS011;45992;45.920;20.074;2022-12-07T22:44:19;377.07;;;198.40;;
58647;SDS011;45992;45.920;20.074;2022-12-07T22:46:45;239.43;;;133.40;;
58647;SDS011;45992;45.920;20.074;2022-12-07T22:49:11;169.02;;;104.00;;
58647;SDS011;45992;45.920;20.074;2022-12-07T22:51:38;170.70;;;106.20;;
58647;SDS011;45992;45.920;20.074;2022-12-07T22:54:05;202.88;;;117.57;;
58647;SDS011;45992;45.920;20.074;2022-12-07T22:56:32;246.30;;;131.68;;
58647;SDS011;45992;45.920;20.074;2022-12-07T22:58:59;204.90;;;111.88;;
58647;SDS011;45992;45.920;20.074;2022-12-07T23:01:25;184.07;;;107.35;;
58647;SDS011;45992;45.920;20.074;2022-12-07T23:03:51;136.73;;;81.72;;
58647;SDS011;45992;45.920;20.074;2022-12-07T23:06:22;194.73;;;114.57;;
58647;SDS011;45992;45.920;20.074;2022-12-07T23:08:49;205.13;;;118.68;;
58647;SDS011;45992;45.920;20.074;2022-12-07T23:11:16;169.90;;;101.23;;
58647;SDS011;45992;45.920;20.074;2022-12-07T23:14:01;136.23;;;82.57;;